sensor_id;sensor_type;location;lat;lon;timestamp;P1;durP1;ratioP1;P2;durP2;ratioP2
79052;SDS011;68451;49.510;6.026;2024-03-23T00:56:03;16.63;;;10.20;;
79052;SDS011;68451;49.510;6.026;2024-03-23T00:58:05;18.05;;;12.35;;
79052;SDS011;68451;49.510;6.026;2024-03-23T01:00:05;17.23;;;10.17;;
79052;SDS011;68451;49.510;6.026;2024-03-23T01:02:07;17.30;;;11.48;;
79052;SDS011;68451;49.510;6.026;2024-03-23T01:04:07;15.07;;;10.02;;
79052;SDS011;68451;49.510;6.026;2024-03-23T01:06:08;17.00;;;10.13;;
79052;SDS011;68451;49.510;6.026;2024-03-23T01:08:09;18.70;;;11.18;;
79052;SDS011;68451;49.510;6.026;2024-03-23T01:10:10;14.07;;;10.13;;
79052;SDS011;68451;49.510;6.026;2024-03-23T01:12:10;15.17;;;9.40;;
79052;SDS011;68451;49.510;6.026;2024-03-23T01:14:11;15.30;;;9.95;;
79052;SDS011;68451;49.510;6.026;2024-03-23T01:16:12;16.07;;;9.93;;
79052;SDS011;68451;49.510;6.026;2024-03-23T01:18:13;17.47;;;10.47;;
79052;SDS011;68451;49.510;6.026;2024-03-23T01:20:14;13.95;;;8.93;;
79052;SDS011;68451;49.510;6.026;2024-03-23T01:22:15;13.63;;;8.63;;
79052;SDS011;68451;49.510;6.026;2024-03-23T01:24:15;10.77;;;4.03;;
79052;SDS011;68451;49.510;6.026;2024-03-23T01:26:16;4.97;;;3.57;;
79052;SDS011;68451;49.510;6.026;2024-03-23T01:28:17;4.97;;;2.97;;
79052;SDS011;68451;49.510;6.026;2024-03-23T01:30:18;3.67;;;2.27;;
79052;SDS011;68451;49.510;6.026;2024-03-23T01:32:18;4.53;;;1.87;;
79052;SDS011;68451;49.510;6.026;2024-03-23T01:34:19;2.43;;;1.70;;
79052;SDS011;68451;49.510;6.026;2024-03-23T01:36:21;2.63;;;1.25;;
79052;SDS011;68451;49.510;6.026;2024-03-23T01:38:21;2.20;;;1.33;;
79052;SDS011;68451;49.510;6.026;2024-03-23T01:40:22;1.95;;;1.48;;
79052;SDS011;68451;49.510;6.026;2024-03-23T01:42:23;1.47;;;1.30;;
79052;SDS011;68451;49.510;6.026;2024-03-23T01:44:24;1.57;;;1.20;;
79052;SDS011;68451;49.510;6.026;2024-03-23T01:46:25;2.43;;;1.43;;
79052;SDS011;68451;49.510;6.026;2024-03-23T01:48:26;1.52;;;0.98;;
79052;SDS011;68451;49.510;6.026;2024-03-23T01:50:27;1.83;;;1.20;;
79052;SDS011;68451;49.510;6.026;2024-03-23T01:52:28;3.28;;;1.90;;
79052;SDS011;68451;49.510;6.026;2024-03-23T01:54:30;1.30;;;1.07;;
79052;SDS011;68451;49.510;6.026;2024-03-23T01:56:32;1.58;;;0.77;;
79052;SDS011;68451;49.510;6.026;2024-03-23T01:58:35;2.33;;;1.00;;
79052;SDS011;68451;49.510;6.026;2024-03-23T02:00:36;1.20;;;1.10;;
79052;SDS011;68451;49.510;6.026;2024-03-23T02:02:44;1.77;;;1.13;;
79052;SDS011;68451;49.510;6.026;2024-03-23T02:04:45;2.50;;;1.50;;
79052;SDS011;68451;49.510;6.026;2024-03-23T02:06:46;1.77;;;0.70;;
79052;SDS011;68451;49.510;6.026;2024-03-23T02:08:46;2.20;;;1.00;;
79052;SDS011;68451;49.510;6.026;2024-03-23T02:10:49;1.17;;;0.68;;
79052;SDS011;68451;49.510;6.026;2024-03-23T02:12:50;1.57;;;0.97;;
79052;SDS011;68451;49.510;6.026;2024-03-23T02:14:51;1.47;;;0.50;;
79052;SDS011;68451;49.510;6.026;2024-03-23T02:16:52;0.80;;;0.50;;
79052;SDS011;68451;49.510;6.026;2024-03-23T02:18:52;0.80;;;0.70;;
79052;SDS011;68451;49.510;6.026;2024-03-23T02:20:53;0.80;;;0.40;;
79052;SDS011;68451;49.510;6.026;2024-03-23T02:22:54;1.40;;;0.57;;
79052;SDS011;68451;49.510;6.026;2024-03-23T02:24:55;0.43;;;0.30;;
79052;SDS011;68451;49.510;6.026;2024-03-23T02:26:55;1.60;;;0.83;;
79052;SDS011;68451;49.510;6.026;2024-03-23T02:28:56;0.60;;;0.60;;
79052;SDS011;68451;49.510;6.026;2024-03-23T02:30:57;2.10;;;1.17;;
79052;SDS011;68451;49.510;6.026;2024-03-23T02:32:59;1.52;;;0.70;;
79052;SDS011;68451;49.510;6.026;2024-03-23T02:34:59;1.40;;;1.03;;
79052;SDS011;68451;49.510;6.026;2024-03-23T02:37:00;0.80;;;0.70;;
79052;SDS011;68451;49.510;6.026;2024-03-23T02:39:01;0.77;;;0.50;;
79052;SDS011;68451;49.510;6.026;2024-03-23T02:41:05;2.87;;;1.00;;
79052;SDS011;68451;49.510;6.026;2024-03-23T02:43:06;1.60;;;0.93;;
79052;SDS011;68451;49.510;6.026;2024-03-23T02:45:06;2.07;;;1.50;;
79052;SDS011;68451;49.510;6.026;2024-03-23T02:47:08;1.98;;;1.05;;
79052;SDS011;68451;49.510;6.026;2024-03-23T02:49:08;2.40;;;1.30;;
79052;SDS011;68451;49.510;6.026;2024-03-23T02:51:09;2.00;;;1.07;;
79052;SDS011;68451;49.510;6.026;2024-03-23T02:53:10;1.43;;;1.30;;
79052;SDS011;68451;49.510;6.026;2024-03-23T02:55:11;4.28;;;1.55;;
79052;SDS011;68451;49.510;6.026;2024-03-23T02:57:12;2.22;;;1.38;;
79052;SDS011;68451;49.510;6.026;2024-03-23T02:59:13;1.93;;;1.23;;
79052;SDS011;68451;49.510;6.026;2024-03-23T03:01:14;3.23;;;1.00;;
79052;SDS011;68451;49.510;6.026;2024-03-23T03:03:15;2.45;;;2.03;;
79052;SDS011;68451;49.510;6.026;2024-03-23T03:05:16;4.23;;;1.40;;
79052;SDS011;68451;49.510;6.026;2024-03-23T03:07:16;2.23;;;1.00;;
79052;SDS011;68451;49.510;6.026;2024-03-23T03:09:17;3.43;;;1.53;;
79052;SDS011;68451;49.510;6.026;2024-03-23T03:11:19;2.70;;;1.10;;
79052;SDS011;68451;49.510;6.026;2024-03-23T03:13:19;3.08;;;1.25;;
79052;SDS011;68451;49.510;6.026;2024-03-23T03:15:20;2.43;;;1.27;;
79052;SDS011;68451;49.510;6.026;2024-03-23T03:17:21;1.60;;;1.10;;
79052;SDS011;68451;49.510;6.026;2024-03-23T03:19:22;7.80;;;1.73;;
79052;SDS011;68451;49.510;6.026;2024-03-23T03:21:22;2.17;;;1.37;;
79052;SDS011;68451;49.510;6.026;2024-03-23T03:23:23;3.97;;;1.33;;
79052;SDS011;68451;49.510;6.026;2024-03-23T03:25:24;1.27;;;1.17;;
79052;SDS011;68451;49.510;6.026;2024-03-23T03:27:25;2.40;;;1.20;;
79052;SDS011;68451;49.510;6.026;2024-03-23T03:29:25;3.07;;;1.60;;
79052;SDS011;68451;49.510;6.026;2024-03-23T03:31:26;3.23;;;1.77;;
79052;SDS011;68451;49.510;6.026;2024-03-23T03:33:27;1.93;;;1.13;;
79052;SDS011;68451;49.510;6.026;2024-03-23T03:35:28;2.65;;;1.02;;
79052;SDS011;68451;49.510;6.026;2024-03-23T03:37:30;2.60;;;1.10;;
79052;SDS011;68451;49.510;6.026;2024-03-23T03:39:31;1.90;;;0.97;;
79052;SDS011;68451;49.510;6.026;2024-03-23T03:41:32;1.63;;;1.20;;
79052;SDS011;68451;49.510;6.026;2024-03-23T03:43:33;0.70;;;0.70;;
79052;SDS011;68451;49.510;6.026;2024-03-23T03:45:34;1.35;;;1.00;;
79052;SDS011;68451;49.510;6.026;2024-03-23T03:47:34;1.80;;;0.60;;
79052;SDS011;68451;49.510;6.026;2024-03-23T03:49:35;1.03;;;0.80;;
79052;SDS011;68451;49.510;6.026;2024-03-23T03:51:36;1.70;;;0.90;;
79052;SDS011;68451;49.510;6.026;2024-03-23T03:53:37;2.00;;;1.07;;
79052;SDS011;68451;49.510;6.026;2024-03-23T03:55:38;1.37;;;0.77;;
79052;SDS011;68451;49.510;6.026;2024-03-23T03:57:38;1.77;;;1.03;;
79052;SDS011;68451;49.510;6.026;2024-03-23T03:59:39;1.57;;;1.00;;
79052;SDS011;68451;49.510;6.026;2024-03-23T04:01:40;3.17;;;1.07;;
79052;SDS011;68451;49.510;6.026;2024-03-23T04:03:41;1.27;;;0.93;;
79052;SDS011;68451;49.510;6.026;2024-03-23T04:05:49;1.57;;;0.93;;
79052;SDS011;68451;49.510;6.026;2024-03-23T04:07:53;1.10;;;0.90;;
79052;SDS011;68451;49.510;6.026;2024-03-23T04:09:54;1.15;;;0.80;;
79052;SDS011;68451;49.510;6.026;2024-03-23T04:11:55;1.60;;;0.87;;
79052;SDS011;68451;49.510;6.026;2024-03-23T04:13:56;1.80;;;0.83;;
79052;SDS011;68451;49.510;6.026;2024-03-23T04:15:56;3.93;;;1.30;;
79052;SDS011;68451;49.510;6.026;2024-03-23T04:17:57;2.83;;;1.00;;
79052;SDS011;68451;49.510;6.026;2024-03-23T04:19:58;2.50;;;1.23;;
79052;SDS011;68451;49.510;6.026;2024-03-23T04:21:59;4.38;;;2.33;;
79052;SDS011;68451;49.510;6.026;2024-03-23T04:24:00;3.63;;;1.70;;
79052;SDS011;68451;49.510;6.026;2024-03-23T04:26:03;5.83;;;1.43;;
79052;SDS011;68451;49.510;6.026;2024-03-23T04:28:05;2.53;;;1.53;;
79052;SDS011;68451;49.510;6.026;2024-03-23T04:30:07;4.15;;;1.45;;
79052;SDS011;68451;49.510;6.026;2024-03-23T04:32:11;2.43;;;1.73;;
79052;SDS011;68451;49.510;6.026;2024-03-23T04:34:12;3.10;;;2.07;;
79052;SDS011;68451;49.510;6.026;2024-03-23T04:36:13;6.57;;;2.03;;
79052;SDS011;68451;49.510;6.026;2024-03-23T04:38:14;3.93;;;2.43;;
79052;SDS011;68451;49.510;6.026;2024-03-23T04:40:16;4.97;;;2.43;;
79052;SDS011;68451;49.510;6.026;2024-03-23T04:42:17;4.40;;;2.30;;
79052;SDS011;68451;49.510;6.026;2024-03-23T04:44:18;5.00;;;2.27;;
79052;SDS011;68451;49.510;6.026;2024-03-23T04:46:19;6.60;;;2.80;;
79052;SDS011;68451;49.510;6.026;2024-03-23T04:48:21;5.67;;;3.03;;
79052;SDS011;68451;49.510;6.026;2024-03-23T04:50:22;5.60;;;2.60;;
79052;SDS011;68451;49.510;6.026;2024-03-23T04:52:23;5.40;;;3.13;;
79052;SDS011;68451;49.510;6.026;2024-03-23T04:54:24;6.73;;;3.57;;
79052;SDS011;68451;49.510;6.026;2024-03-23T04:56:25;6.70;;;3.70;;
79052;SDS011;68451;49.510;6.026;2024-03-23T04:58:25;14.30;;;5.07;;
79052;SDS011;68451;49.510;6.026;2024-03-23T05:00:26;12.80;;;4.80;;
79052;SDS011;68451;49.510;6.026;2024-03-23T05:02:27;10.47;;;4.63;;
79052;SDS011;68451;49.510;6.026;2024-03-23T05:04:28;10.37;;;5.17;;
79052;SDS011;68451;49.510;6.026;2024-03-23T05:06:29;8.65;;;4.80;;
79052;SDS011;68451;49.510;6.026;2024-03-23T05:08:29;9.63;;;5.93;;
79052;SDS011;68451;49.510;6.026;2024-03-23T05:10:30;10.17;;;4.60;;
79052;SDS011;68451;49.510;6.026;2024-03-23T05:12:32;10.30;;;5.27;;
79052;SDS011;68451;49.510;6.026;2024-03-23T05:14:33;11.10;;;5.60;;
79052;SDS011;68451;49.510;6.026;2024-03-23T05:16:34;15.63;;;5.77;;
79052;SDS011;68451;49.510;6.026;2024-03-23T05:18:35;15.10;;;6.27;;
79052;SDS011;68451;49.510;6.026;2024-03-23T05:20:36;12.82;;;6.10;;
79052;SDS011;68451;49.510;6.026;2024-03-23T05:22:37;11.10;;;6.30;;
79052;SDS011;68451;49.510;6.026;2024-03-23T05:24:37;14.63;;;5.40;;
79052;SDS011;68451;49.510;6.026;2024-03-23T05:26:38;6.93;;;5.37;;
79052;SDS011;68451;49.510;6.026;2024-03-23T05:28:39;9.00;;;5.50;;
79052;SDS011;68451;49.510;6.026;2024-03-23T05:30:39;11.63;;;6.37;;
79052;SDS011;68451;49.510;6.026;2024-03-23T05:32:40;17.00;;;7.67;;
79052;SDS011;68451;49.510;6.026;2024-03-23T05:34:42;8.80;;;5.65;;
79052;SDS011;68451;49.510;6.026;2024-03-23T05:36:44;9.77;;;5.27;;
79052;SDS011;68451;49.510;6.026;2024-03-23T05:38:45;10.03;;;5.53;;
79052;SDS011;68451;49.510;6.026;2024-03-23T05:40:52;10.07;;;5.03;;
79052;SDS011;68451;49.510;6.026;2024-03-23T05:43:02;10.80;;;5.93;;
79052;SDS011;68451;49.510;6.026;2024-03-23T05:45:04;9.23;;;5.28;;
79052;SDS011;68451;49.510;6.026;2024-03-23T05:47:06;17.30;;;6.37;;
79052;SDS011;68451;49.510;6.026;2024-03-23T05:49:07;15.97;;;6.03;;
79052;SDS011;68451;49.510;6.026;2024-03-23T05:51:08;12.23;;;6.18;;
79052;SDS011;68451;49.510;6.026;2024-03-23T05:53:09;8.73;;;5.90;;
79052;SDS011;68451;49.510;6.026;2024-03-23T05:55:10;12.30;;;5.60;;
79052;SDS011;68451;49.510;6.026;2024-03-23T05:57:10;12.23;;;6.13;;
79052;SDS011;68451;49.510;6.026;2024-03-23T05:59:12;12.32;;;5.38;;
79052;SDS011;68451;49.510;6.026;2024-03-23T06:01:13;11.37;;;6.53;;
79052;SDS011;68451;49.510;6.026;2024-03-23T06:03:13;12.73;;;7.10;;
79052;SDS011;68451;49.510;6.026;2024-03-23T06:05:14;11.47;;;7.07;;
79052;SDS011;68451;49.510;6.026;2024-03-23T06:07:15;10.07;;;6.27;;
79052;SDS011;68451;49.510;6.026;2024-03-23T06:09:16;13.17;;;6.97;;
79052;SDS011;68451;49.510;6.026;2024-03-23T06:11:16;12.73;;;5.93;;
79052;SDS011;68451;49.510;6.026;2024-03-23T06:13:17;10.70;;;6.63;;
79052;SDS011;68451;49.510;6.026;2024-03-23T06:15:18;11.00;;;6.33;;
79052;SDS011;68451;49.510;6.026;2024-03-23T06:17:19;10.95;;;6.60;;
79052;SDS011;68451;49.510;6.026;2024-03-23T06:19:20;17.87;;;6.97;;
79052;SDS011;68451;49.510;6.026;2024-03-23T06:21:21;13.30;;;6.87;;
79052;SDS011;68451;49.510;6.026;2024-03-23T06:23:24;10.57;;;7.50;;
79052;SDS011;68451;49.510;6.026;2024-03-23T06:25:24;12.37;;;6.83;;
79052;SDS011;68451;49.510;6.026;2024-03-23T06:27:25;13.53;;;7.17;;
79052;SDS011;68451;49.510;6.026;2024-03-23T06:29:26;14.50;;;7.93;;
79052;SDS011;68451;49.510;6.026;2024-03-23T06:31:27;12.60;;;7.13;;
79052;SDS011;68451;49.510;6.026;2024-03-23T06:33:28;13.05;;;6.78;;
79052;SDS011;68451;49.510;6.026;2024-03-23T06:35:29;11.27;;;6.17;;
79052;SDS011;68451;49.510;6.026;2024-03-23T06:37:30;9.80;;;5.70;;
79052;SDS011;68451;49.510;6.026;2024-03-23T06:39:31;13.30;;;5.47;;
79052;SDS011;68451;49.510;6.026;2024-03-23T06:41:31;9.37;;;4.83;;
79052;SDS011;68451;49.510;6.026;2024-03-23T06:43:32;8.83;;;4.63;;
79052;SDS011;68451;49.510;6.026;2024-03-23T06:45:33;8.37;;;4.93;;
79052;SDS011;68451;49.510;6.026;2024-03-23T06:47:34;10.37;;;5.50;;
79052;SDS011;68451;49.510;6.026;2024-03-23T06:49:34;10.80;;;6.00;;
79052;SDS011;68451;49.510;6.026;2024-03-23T06:51:35;9.70;;;5.43;;
79052;SDS011;68451;49.510;6.026;2024-03-23T06:53:36;8.37;;;5.10;;
79052;SDS011;68451;49.510;6.026;2024-03-23T06:55:37;10.33;;;5.03;;
79052;SDS011;68451;49.510;6.026;2024-03-23T06:57:37;9.27;;;5.23;;
79052;SDS011;68451;49.510;6.026;2024-03-23T06:59:38;8.67;;;4.43;;
79052;SDS011;68451;49.510;6.026;2024-03-23T07:01:39;15.90;;;6.47;;
79052;SDS011;68451;49.510;6.026;2024-03-23T07:03:39;14.73;;;6.80;;
79052;SDS011;68451;49.510;6.026;2024-03-23T07:05:40;10.20;;;6.30;;
79052;SDS011;68451;49.510;6.026;2024-03-23T07:07:42;14.80;;;6.45;;
79052;SDS011;68451;49.510;6.026;2024-03-23T07:09:42;14.10;;;6.63;;
79052;SDS011;68451;49.510;6.026;2024-03-23T07:11:43;13.80;;;7.87;;
79052;SDS011;68451;49.510;6.026;2024-03-23T07:13:44;12.40;;;5.97;;
79052;SDS011;68451;49.510;6.026;2024-03-23T07:15:50;9.90;;;7.72;;
79052;SDS011;68451;49.510;6.026;2024-03-23T07:17:51;10.00;;;5.83;;
79052;SDS011;68451;49.510;6.026;2024-03-23T07:19:52;13.77;;;7.40;;
79052;SDS011;68451;49.510;6.026;2024-03-23T07:21:53;17.43;;;5.57;;
79052;SDS011;68451;49.510;6.026;2024-03-23T07:23:54;9.50;;;5.63;;
79052;SDS011;68451;49.510;6.026;2024-03-23T07:25:58;7.63;;;5.30;;
79052;SDS011;68451;49.510;6.026;2024-03-23T07:27:59;13.17;;;5.17;;
79052;SDS011;68451;49.510;6.026;2024-03-23T07:30:00;9.13;;;5.10;;
79052;SDS011;68451;49.510;6.026;2024-03-23T07:32:01;7.32;;;4.82;;
79052;SDS011;68451;49.510;6.026;2024-03-23T07:34:02;7.47;;;4.17;;
79052;SDS011;68451;49.510;6.026;2024-03-23T07:36:03;9.90;;;4.77;;
79052;SDS011;68451;49.510;6.026;2024-03-23T07:38:05;5.47;;;4.60;;
79052;SDS011;68451;49.510;6.026;2024-03-23T07:40:06;9.30;;;5.43;;
79052;SDS011;68451;49.510;6.026;2024-03-23T07:42:07;8.52;;;5.63;;
79052;SDS011;68451;49.510;6.026;2024-03-23T07:44:08;8.87;;;5.20;;
79052;SDS011;68451;49.510;6.026;2024-03-23T07:46:09;8.45;;;4.35;;
79052;SDS011;68451;49.510;6.026;2024-03-23T07:48:10;10.35;;;5.45;;
79052;SDS011;68451;49.510;6.026;2024-03-23T07:50:10;5.43;;;3.70;;
79052;SDS011;68451;49.510;6.026;2024-03-23T07:52:11;7.55;;;4.03;;
79052;SDS011;68451;49.510;6.026;2024-03-23T07:54:12;5.37;;;3.93;;
79052;SDS011;68451;49.510;6.026;2024-03-23T07:56:12;6.70;;;4.27;;
79052;SDS011;68451;49.510;6.026;2024-03-23T07:58:15;6.57;;;3.47;;
79052;SDS011;68451;49.510;6.026;2024-03-23T08:00:16;5.55;;;3.83;;
79052;SDS011;68451;49.510;6.026;2024-03-23T08:02:17;5.68;;;3.92;;
79052;SDS011;68451;49.510;6.026;2024-03-23T08:04:18;6.40;;;3.20;;
79052;SDS011;68451;49.510;6.026;2024-03-23T08:06:20;7.88;;;3.90;;
79052;SDS011;68451;49.510;6.026;2024-03-23T08:08:22;5.00;;;3.38;;
79052;SDS011;68451;49.510;6.026;2024-03-23T08:10:22;6.65;;;3.08;;
79052;SDS011;68451;49.510;6.026;2024-03-23T08:12:23;8.88;;;4.25;;
79052;SDS011;68451;49.510;6.026;2024-03-23T08:14:24;6.90;;;3.20;;
79052;SDS011;68451;49.510;6.026;2024-03-23T08:16:24;6.95;;;2.90;;
79052;SDS011;68451;49.510;6.026;2024-03-23T08:18:25;9.73;;;3.83;;
79052;SDS011;68451;49.510;6.026;2024-03-23T08:20:26;5.50;;;3.47;;
79052;SDS011;68451;49.510;6.026;2024-03-23T08:22:27;8.32;;;3.80;;
79052;SDS011;68451;49.510;6.026;2024-03-23T08:24:28;4.70;;;3.15;;
79052;SDS011;68451;49.510;6.026;2024-03-23T08:26:28;6.10;;;3.72;;
79052;SDS011;68451;49.510;6.026;2024-03-23T08:28:29;9.98;;;4.25;;
79052;SDS011;68451;49.510;6.026;2024-03-23T08:30:30;6.40;;;3.42;;
79052;SDS011;68451;49.510;6.026;2024-03-23T08:32:31;10.32;;;4.13;;
79052;SDS011;68451;49.510;6.026;2024-03-23T08:34:32;6.53;;;3.67;;
79052;SDS011;68451;49.510;6.026;2024-03-23T08:36:33;8.55;;;4.22;;
79052;SDS011;68451;49.510;6.026;2024-03-23T08:38:33;7.88;;;4.70;;
79052;SDS011;68451;49.510;6.026;2024-03-23T08:40:35;7.40;;;3.92;;
79052;SDS011;68451;49.510;6.026;2024-03-23T08:42:35;7.30;;;4.20;;
79052;SDS011;68451;49.510;6.026;2024-03-23T08:44:37;8.13;;;4.20;;
79052;SDS011;68451;49.510;6.026;2024-03-23T08:46:37;7.05;;;4.10;;
79052;SDS011;68451;49.510;6.026;2024-03-23T08:48:39;13.55;;;3.90;;
79052;SDS011;68451;49.510;6.026;2024-03-23T08:50:41;5.75;;;3.58;;
79052;SDS011;68451;49.510;6.026;2024-03-23T08:52:41;7.57;;;4.32;;
79052;SDS011;68451;49.510;6.026;2024-03-23T08:54:42;8.20;;;4.22;;
79052;SDS011;68451;49.510;6.026;2024-03-23T08:56:43;9.88;;;4.45;;
79052;SDS011;68451;49.510;6.026;2024-03-23T08:58:44;10.75;;;4.40;;
79052;SDS011;68451;49.510;6.026;2024-03-23T09:00:45;6.32;;;4.25;;
79052;SDS011;68451;49.510;6.026;2024-03-23T09:02:47;7.43;;;4.47;;
79052;SDS011;68451;49.510;6.026;2024-03-23T09:04:48;9.85;;;4.72;;
79052;SDS011;68451;49.510;6.026;2024-03-23T09:06:49;8.55;;;4.45;;
79052;SDS011;68451;49.510;6.026;2024-03-23T09:08:50;11.02;;;4.38;;
79052;SDS011;68451;49.510;6.026;2024-03-23T09:10:51;8.55;;;4.85;;
79052;SDS011;68451;49.510;6.026;2024-03-23T09:12:52;9.45;;;5.30;;
79052;SDS011;68451;49.510;6.026;2024-03-23T09:14:53;10.98;;;5.72;;
79052;SDS011;68451;49.510;6.026;2024-03-23T09:16:54;11.55;;;6.45;;
79052;SDS011;68451;49.510;6.026;2024-03-23T09:18:54;11.30;;;5.17;;
79052;SDS011;68451;49.510;6.026;2024-03-23T09:20:55;13.50;;;6.00;;
79052;SDS011;68451;49.510;6.026;2024-03-23T09:22:57;9.93;;;5.75;;
79052;SDS011;68451;49.510;6.026;2024-03-23T09:24:58;13.13;;;4.57;;
79052;SDS011;68451;49.510;6.026;2024-03-23T09:26:58;11.70;;;4.83;;
79052;SDS011;68451;49.510;6.026;2024-03-23T09:28:59;9.37;;;4.97;;
79052;SDS011;68451;49.510;6.026;2024-03-23T09:31:03;14.43;;;5.23;;
79052;SDS011;68451;49.510;6.026;2024-03-23T09:33:04;13.20;;;5.72;;
79052;SDS011;68451;49.510;6.026;2024-03-23T09:35:05;10.87;;;5.27;;
79052;SDS011;68451;49.510;6.026;2024-03-23T09:37:06;12.90;;;5.28;;
79052;SDS011;68451;49.510;6.026;2024-03-23T09:39:07;10.80;;;5.18;;
79052;SDS011;68451;49.510;6.026;2024-03-23T09:41:09;10.00;;;5.75;;
79052;SDS011;68451;49.510;6.026;2024-03-23T09:43:10;13.00;;;5.50;;
79052;SDS011;68451;49.510;6.026;2024-03-23T09:45:26;8.70;;;4.53;;
79052;SDS011;68451;49.510;6.026;2024-03-23T09:47:28;11.10;;;4.70;;
79052;SDS011;68451;49.510;6.026;2024-03-23T09:49:30;9.35;;;4.25;;
79052;SDS011;68451;49.510;6.026;2024-03-23T09:51:31;9.18;;;4.43;;
79052;SDS011;68451;49.510;6.026;2024-03-23T09:53:31;10.02;;;4.40;;
79052;SDS011;68451;49.510;6.026;2024-03-23T09:55:33;6.20;;;2.92;;
79052;SDS011;68451;49.510;6.026;2024-03-23T09:57:35;6.60;;;3.58;;
79052;SDS011;68451;49.510;6.026;2024-03-23T09:59:36;10.50;;;2.63;;
79052;SDS011;68451;49.510;6.026;2024-03-23T10:01:37;6.40;;;2.60;;
79052;SDS011;68451;49.510;6.026;2024-03-23T10:03:44;3.43;;;1.47;;
79052;SDS011;68451;49.510;6.026;2024-03-23T10:05:47;5.70;;;1.50;;
79052;SDS011;68451;49.510;6.026;2024-03-23T10:10:14;2.13;;;1.07;;
79052;SDS011;68451;49.510;6.026;2024-03-23T10:12:16;2.23;;;0.80;;
79052;SDS011;68451;49.510;6.026;2024-03-23T10:14:31;0.60;;;0.47;;
79052;SDS011;68451;49.510;6.026;2024-03-23T10:16:31;1.30;;;0.80;;
79052;SDS011;68451;49.510;6.026;2024-03-23T10:18:32;1.43;;;0.80;;
79052;SDS011;68451;49.510;6.026;2024-03-23T10:20:38;1.60;;;1.03;;
79052;SDS011;68451;49.510;6.026;2024-03-23T10:22:38;1.43;;;0.80;;
79052;SDS011;68451;49.510;6.026;2024-03-23T10:24:39;2.13;;;0.70;;
79052;SDS011;68451;49.510;6.026;2024-03-23T10:26:41;1.13;;;0.80;;
79052;SDS011;68451;49.510;6.026;2024-03-23T10:28:51;3.13;;;0.93;;
79052;SDS011;68451;49.510;6.026;2024-03-23T10:30:53;1.75;;;1.05;;
79052;SDS011;68451;49.510;6.026;2024-03-23T10:33:14;1.10;;;0.80;;
79052;SDS011;68451;49.510;6.026;2024-03-23T10:37:19;2.78;;;1.10;;
79052;SDS011;68451;49.510;6.026;2024-03-23T10:39:20;2.55;;;1.10;;
79052;SDS011;68451;49.510;6.026;2024-03-23T10:41:22;2.25;;;1.20;;
79052;SDS011;68451;49.510;6.026;2024-03-23T10:43:25;3.22;;;1.98;;
79052;SDS011;68451;49.510;6.026;2024-03-23T10:45:26;3.60;;;1.50;;
79052;SDS011;68451;49.510;6.026;2024-03-23T10:47:26;2.63;;;1.20;;
79052;SDS011;68451;49.510;6.026;2024-03-23T10:49:30;4.63;;;1.70;;
79052;SDS011;68451;49.510;6.026;2024-03-23T10:51:32;3.95;;;1.83;;
79052;SDS011;68451;49.510;6.026;2024-03-23T10:53:34;2.78;;;1.60;;
79052;SDS011;68451;49.510;6.026;2024-03-23T10:55:35;3.70;;;1.58;;
79052;SDS011;68451;49.510;6.026;2024-03-23T10:57:38;4.63;;;1.50;;
79052;SDS011;68451;49.510;6.026;2024-03-23T10:59:43;2.73;;;1.53;;
79052;SDS011;68451;49.510;6.026;2024-03-23T11:01:55;2.53;;;1.80;;
79052;SDS011;68451;49.510;6.026;2024-03-23T11:03:57;6.20;;;1.73;;
79052;SDS011;68451;49.510;6.026;2024-03-23T11:05:59;4.70;;;1.60;;
79052;SDS011;68451;49.510;6.026;2024-03-23T11:08:00;5.87;;;1.60;;
79052;SDS011;68451;49.510;6.026;2024-03-23T11:10:02;3.10;;;1.67;;
79052;SDS011;68451;49.510;6.026;2024-03-23T11:12:36;4.00;;;2.27;;
79052;SDS011;68451;49.510;6.026;2024-03-23T11:14:32;2.27;;;1.10;;
79052;SDS011;68451;49.510;6.026;2024-03-23T11:16:33;5.87;;;1.60;;
79052;SDS011;68451;49.510;6.026;2024-03-23T11:18:36;5.43;;;1.90;;
79052;SDS011;68451;49.510;6.026;2024-03-23T11:20:37;2.40;;;1.40;;
79052;SDS011;68451;49.510;6.026;2024-03-23T11:24:49;3.03;;;1.30;;
79052;SDS011;68451;49.510;6.026;2024-03-23T11:26:50;3.87;;;1.20;;
79052;SDS011;68451;49.510;6.026;2024-03-23T11:28:55;2.33;;;1.53;;
79052;SDS011;68451;49.510;6.026;2024-03-23T11:31:09;3.47;;;1.60;;
79052;SDS011;68451;49.510;6.026;2024-03-23T11:33:11;2.10;;;1.33;;
79052;SDS011;68451;49.510;6.026;2024-03-23T11:37:25;3.93;;;1.13;;
79052;SDS011;68451;49.510;6.026;2024-03-23T11:39:27;3.40;;;1.40;;
79052;SDS011;68451;49.510;6.026;2024-03-23T11:41:27;3.40;;;1.70;;
79052;SDS011;68451;49.510;6.026;2024-03-23T11:43:28;4.37;;;1.57;;
79052;SDS011;68451;49.510;6.026;2024-03-23T11:45:31;3.23;;;1.00;;
79052;SDS011;68451;49.510;6.026;2024-03-23T11:47:34;3.67;;;1.23;;
79052;SDS011;68451;49.510;6.026;2024-03-23T11:49:35;2.50;;;0.90;;
79052;SDS011;68451;49.510;6.026;2024-03-23T11:51:41;1.83;;;1.10;;
79052;SDS011;68451;49.510;6.026;2024-03-23T11:53:41;1.30;;;1.03;;
79052;SDS011;68451;49.510;6.026;2024-03-23T11:55:46;1.97;;;1.40;;
79052;SDS011;68451;49.510;6.026;2024-03-23T11:57:51;1.63;;;0.93;;
79052;SDS011;68451;49.510;6.026;2024-03-23T11:59:51;4.20;;;1.10;;
79052;SDS011;68451;49.510;6.026;2024-03-23T12:01:52;1.13;;;0.93;;
79052;SDS011;68451;49.510;6.026;2024-03-23T12:03:53;1.63;;;0.93;;
79052;SDS011;68451;49.510;6.026;2024-03-23T12:06:03;2.50;;;1.27;;
79052;SDS011;68451;49.510;6.026;2024-03-23T12:08:21;1.38;;;0.93;;
79052;SDS011;68451;49.510;6.026;2024-03-23T12:10:24;1.23;;;0.90;;
79052;SDS011;68451;49.510;6.026;2024-03-23T12:12:25;2.10;;;1.10;;
79052;SDS011;68451;49.510;6.026;2024-03-23T12:14:25;1.93;;;0.93;;
79052;SDS011;68451;49.510;6.026;2024-03-23T12:16:26;6.77;;;1.10;;
79052;SDS011;68451;49.510;6.026;2024-03-23T12:18:28;2.13;;;1.23;;
79052;SDS011;68451;49.510;6.026;2024-03-23T12:20:28;3.13;;;1.03;;
79052;SDS011;68451;49.510;6.026;2024-03-23T12:22:29;3.73;;;1.40;;
79052;SDS011;68451;49.510;6.026;2024-03-23T12:24:30;3.93;;;2.30;;
79052;SDS011;68451;49.510;6.026;2024-03-23T12:26:32;3.97;;;2.03;;
79052;SDS011;68451;49.510;6.026;2024-03-23T12:28:33;5.47;;;1.90;;
79052;SDS011;68451;49.510;6.026;2024-03-23T12:30:38;7.05;;;2.08;;
79052;SDS011;68451;49.510;6.026;2024-03-23T12:32:40;7.90;;;2.20;;
79052;SDS011;68451;49.510;6.026;2024-03-23T12:34:41;9.27;;;2.23;;
79052;SDS011;68451;49.510;6.026;2024-03-23T12:36:42;3.35;;;1.90;;
79052;SDS011;68451;49.510;6.026;2024-03-23T12:38:42;4.73;;;2.73;;
79052;SDS011;68451;49.510;6.026;2024-03-23T12:40:48;7.50;;;3.33;;
79052;SDS011;68451;49.510;6.026;2024-03-23T12:42:49;7.80;;;1.83;;
79052;SDS011;68451;49.510;6.026;2024-03-23T12:44:50;6.03;;;2.33;;
79052;SDS011;68451;49.510;6.026;2024-03-23T12:46:51;5.03;;;1.80;;
79052;SDS011;68451;49.510;6.026;2024-03-23T12:48:51;3.77;;;2.10;;
79052;SDS011;68451;49.510;6.026;2024-03-23T12:50:55;3.63;;;1.77;;
79052;SDS011;68451;49.510;6.026;2024-03-23T12:52:56;5.57;;;2.07;;
79052;SDS011;68451;49.510;6.026;2024-03-23T12:54:57;3.40;;;1.70;;
79052;SDS011;68451;49.510;6.026;2024-03-23T12:56:58;3.47;;;1.48;;
79052;SDS011;68451;49.510;6.026;2024-03-23T12:58:59;3.67;;;1.50;;
79052;SDS011;68451;49.510;6.026;2024-03-23T13:01:00;2.45;;;1.35;;
79052;SDS011;68451;49.510;6.026;2024-03-23T13:03:00;4.05;;;1.75;;
79052;SDS011;68451;49.510;6.026;2024-03-23T13:05:01;4.13;;;1.93;;
79052;SDS011;68451;49.510;6.026;2024-03-23T13:07:03;7.55;;;1.40;;
79052;SDS011;68451;49.510;6.026;2024-03-23T13:09:05;2.53;;;1.17;;
79052;SDS011;68451;49.510;6.026;2024-03-23T13:11:06;2.73;;;0.97;;
79052;SDS011;68451;49.510;6.026;2024-03-23T13:13:09;1.10;;;0.90;;